Etusivu
METAR-TAF:

METAR-TAF

Lentoasemat :

Liègen lentoasema

Liège, Belgia

Leveyspiiri: 50-39N, Pituuspiiri: 005-27E, korkeus merenpinnasta: 186 m

Tämänhetkinen sää

Tämä raportti tehtiin 20 minuuttia sitten, kello 13.50 UTC
Tuuli 7 kn pohjoisesta, vaihdellen luoteen ja pohjoisen/koillisen välillä
Lämpötila 6°C
Kosteus 49%
Ilmanpaine 1028 hPa
Näkyvyys 10 km tai enemmän
Hajanaisia pilviä 4600 ft:n korkeudessa

METAR: EBLG 301350Z 35007KT 310V020 9999 SCT046 06/M04 Q1028 NOSIG

Aika: 16:10 (14:10 UTC)

Sääennuste

Tämä raportti tehtiin 2 tuntia ja 55 minuuttia sitten, kello 11.15 UTC
Ennuste voimassa 30. päivästä klo 12 UTC - 31. päivään klo 18 UTC
Tuuli 5 kn pohjoisesta/koillisesta
Näkyvyys 10 km tai enemmän
Hajanaisia pilviä 4500 ft:n korkeudessa
Todennäköisyys 30% :
Ajoittain
31. päivästä klo 00 UTC - 31. päivään klo 08 UTC
Hajonneita pilviä 600 ft:n korkeudessa

TAF: EBLG 301115Z 3012/3118 02005KT 9999 SCT045 PROB30 TEMPO 3100/3108 BKN006

Säähavainnot ja -ennusteet yli 4000 lentoasemalta (METAR- ja TAF-raportit).

Käytössä olevat sääasemat on merkitty karttaan keltaisilla ja punaisilla pisteillä.

Aseta hiiri pisteen päälle nähdäksesi sääaseman nimen.

Klikkaa sitten nähdäksesi säähavainnot ja -ennusteet.

Kartan vaihtaminen: klikkaa mustalla rastilla varustettuja vihreitä pisteitä, niin voit zoomata sisään; viivalla varustettua vihreää pistettä, niin voit zoomata ulos tai vihreitä nuolia, niin pääset viereisille kartoille.


METAR-TAF: